createdAt,value
2023-05-11T00:01:57.108Z,1.70
2023-05-11T00:06:57.066Z,4.30
2023-05-11T00:11:56.971Z,1.29
2023-05-11T00:16:56.912Z,3.40
2023-05-11T00:21:56.862Z,3.50
2023-05-11T00:26:56.782Z,4.40
2023-05-11T00:31:56.791Z,2.40
2023-05-11T00:36:56.641Z,8.60
2023-05-11T00:41:56.603Z,2.20
2023-05-11T00:46:56.553Z,3.59
2023-05-11T00:51:56.454Z,2.50
2023-05-11T00:56:56.367Z,3.00
2023-05-11T01:01:56.353Z,2.09
2023-05-11T01:06:56.244Z,1.90
2023-05-11T01:11:56.179Z,2.70
2023-05-11T01:16:56.154Z,4.30
2023-05-11T01:21:56.053Z,3.00
2023-05-11T01:26:55.975Z,2.70
2023-05-11T01:31:55.955Z,3.09
2023-05-11T01:36:55.854Z,3.40
2023-05-11T01:41:55.796Z,2.50
2023-05-11T01:46:55.713Z,3.90
2023-05-11T01:51:55.662Z,2.59
2023-05-11T01:56:55.580Z,4.19
2023-05-11T02:01:55.580Z,3.79
2023-05-11T02:06:55.459Z,3.59
2023-05-11T02:11:55.401Z,4.40
2023-05-11T02:16:55.320Z,2.29
2023-05-11T02:21:55.260Z,3.59
2023-05-11T02:26:55.195Z,4.90
2023-05-11T02:31:55.131Z,4.90
2023-05-11T02:36:55.059Z,5.19
2023-05-11T02:41:54.995Z,3.00
2023-05-11T02:46:54.956Z,5.40
2023-05-11T02:51:54.872Z,3.40
2023-05-11T02:56:54.796Z,3.20
2023-05-11T03:01:54.846Z,4.09
2023-05-11T03:06:54.673Z,2.79
2023-05-11T03:11:54.608Z,4.30
2023-05-11T03:16:54.577Z,3.00
2023-05-11T03:21:54.479Z,5.80
2023-05-11T03:26:54.410Z,5.80
2023-05-11T03:31:54.388Z,4.40
2023-05-11T03:36:54.283Z,4.19
2023-05-11T03:41:54.217Z,4.50
2023-05-11T03:46:54.154Z,4.19
2023-05-11T03:51:54.091Z,5.30
2023-05-11T03:56:54.009Z,5.19
2023-05-11T04:01:53.954Z,5.30
2023-05-11T04:06:53.875Z,6.40
2023-05-11T04:11:53.822Z,5.69
2023-05-11T04:16:53.742Z,5.19
2023-05-11T04:21:53.692Z,6.30
2023-05-11T04:26:53.606Z,6.59
2023-05-11T04:31:53.660Z,6.40
2023-05-11T04:36:53.483Z,5.40
2023-05-11T04:41:53.434Z,5.19
2023-05-11T04:46:53.387Z,7.09
2023-05-11T04:51:53.317Z,8.60
2023-05-11T04:56:53.223Z,5.00
2023-05-11T05:01:53.156Z,5.00
2023-05-11T05:06:53.087Z,5.19
2023-05-11T05:11:53.042Z,7.90
2023-05-11T05:16:52.973Z,5.59
2023-05-11T05:21:52.894Z,5.30
2023-05-11T05:26:52.821Z,6.69
2023-05-11T05:31:52.766Z,5.40
2023-05-11T05:36:52.696Z,7.30
2023-05-11T05:41:52.635Z,5.90
2023-05-11T05:46:52.569Z,6.19
2023-05-11T05:51:52.501Z,8.39
2023-05-11T05:56:52.547Z,8.89
2023-05-11T06:01:52.369Z,6.09
2023-05-11T06:06:52.293Z,6.69
2023-05-11T06:11:52.236Z,6.90
2023-05-11T06:16:52.160Z,8.69
2023-05-11T06:21:52.113Z,8.60
2023-05-11T06:26:52.031Z,7.09
2023-05-11T06:31:52.003Z,7.50
2023-05-11T06:36:51.917Z,9.30
2023-05-11T06:41:51.899Z,9.60
2023-05-11T06:46:51.781Z,9.10
2023-05-11T06:51:51.726Z,10.69
2023-05-11T06:56:51.649Z,10.30
2023-05-11T07:01:51.599Z,8.39
2023-05-11T07:06:51.510Z,10.89
2023-05-11T07:11:51.444Z,10.80
2023-05-11T07:16:51.411Z,8.50
2023-05-11T07:21:51.304Z,11.89
2023-05-11T07:26:51.227Z,12.60
2023-05-11T07:31:51.232Z,10.69
2023-05-11T07:36:51.089Z,14.89
2023-05-11T07:41:51.049Z,11.00
2023-05-11T07:46:50.989Z,14.80
2023-05-11T07:51:50.908Z,14.60
2023-05-11T07:56:50.825Z,16.60
2023-05-11T08:01:50.802Z,17.89
2023-05-11T08:06:50.693Z,16.10
2023-05-11T08:11:50.639Z,16.70
2023-05-11T08:16:50.595Z,12.80
2023-05-11T08:21:50.525Z,14.39
2023-05-11T08:26:50.437Z,15.30
2023-05-11T08:31:50.392Z,14.89
2023-05-11T08:36:50.308Z,12.60
2023-05-11T08:41:50.234Z,12.30
2023-05-11T08:47:01.392Z,13.69
2023-05-11T08:51:51.120Z,14.19
2023-05-11T08:56:50.062Z,19.20
2023-05-11T09:01:50.049Z,12.89
2023-05-11T09:06:49.884Z,10.80
2023-05-11T09:11:49.824Z,10.60
2023-05-11T09:16:49.809Z,13.69
2023-05-11T09:21:49.702Z,10.19
2023-05-11T09:26:49.642Z,10.60
2023-05-11T09:31:49.636Z,9.30
2023-05-11T09:36:49.556Z,8.80
2023-05-11T09:41:50.323Z,9.60
2023-05-11T09:46:49.429Z,11.60
2023-05-11T09:51:49.291Z,9.69
2023-05-11T09:56:49.309Z,10.00
2023-05-11T10:03:38.948Z,11.89
2023-05-11T10:10:33.863Z,14.10
2023-05-11T10:17:17.092Z,12.30
2023-05-11T10:22:17.071Z,17.00
2023-05-11T10:30:55.601Z,9.19
2023-05-11T10:37:44.846Z,8.89
2023-05-11T10:42:44.922Z,9.10
2023-05-11T10:49:34.018Z,9.89
2023-05-11T10:54:33.948Z,9.00
2023-05-11T10:59:33.899Z,7.59
2023-05-11T11:04:33.816Z,9.19
2023-05-11T11:09:33.771Z,6.50
2023-05-11T11:14:33.696Z,7.50
2023-05-11T11:19:33.647Z,9.50
2023-05-11T11:24:33.577Z,8.60
2023-05-11T11:31:47.109Z,6.19
2023-05-11T11:36:46.366Z,4.69
2023-05-11T11:41:46.305Z,5.30
2023-05-11T11:46:46.235Z,4.69
2023-05-11T11:52:40.828Z,8.69
2023-05-11T11:57:40.749Z,5.30
2023-05-11T12:02:40.767Z,5.80
2023-05-11T12:08:36.715Z,5.69
2023-05-11T12:30:10.825Z,4.50
2023-05-11T12:51:34.768Z,3.70
2023-05-11T12:56:34.685Z,3.29
2023-05-11T13:01:34.634Z,2.59
2023-05-11T13:07:35.325Z,2.40
2023-05-11T13:13:23.795Z,6.00
2023-05-11T13:21:07.477Z,2.29
2023-05-11T13:30:23.502Z,3.40
2023-05-11T13:38:01.312Z,2.09
2023-05-11T13:43:01.254Z,2.40
2023-05-11T13:48:01.229Z,4.69
2023-05-11T13:53:01.125Z,2.79
2023-05-11T13:58:01.097Z,3.09
2023-05-11T14:39:48.655Z,4.90
2023-05-11T14:44:48.572Z,4.00
2023-05-11T14:49:48.504Z,2.29
2023-05-11T14:54:48.442Z,2.79
2023-05-11T14:59:59.114Z,1.79
2023-05-11T15:04:49.335Z,2.00
2023-05-11T15:09:48.249Z,3.40
2023-05-11T15:14:48.183Z,4.80
2023-05-11T15:19:48.121Z,4.59
2023-05-11T15:24:48.069Z,2.70
2023-05-11T15:29:47.981Z,2.20
2023-05-11T15:34:59.365Z,5.59
2023-05-11T15:39:48.890Z,5.30
2023-05-11T15:44:47.812Z,2.70
2023-05-11T15:49:47.749Z,2.70
2023-05-11T15:54:47.698Z,2.90
2023-05-11T15:59:47.617Z,4.09
2023-05-11T16:04:47.554Z,3.00
2023-05-11T16:09:47.510Z,3.09
2023-05-11T16:14:47.427Z,2.90
2023-05-11T16:19:47.363Z,4.50
2023-05-11T16:24:47.307Z,2.50
2023-05-11T16:29:47.226Z,2.29
2023-05-11T16:34:47.166Z,5.09
2023-05-11T16:39:47.096Z,5.00
2023-05-11T16:44:47.057Z,2.40
2023-05-11T16:49:46.969Z,2.90
2023-05-11T16:54:46.923Z,4.00
2023-05-11T16:59:46.846Z,6.59
2023-05-11T17:04:46.829Z,4.59
2023-05-11T17:09:46.717Z,3.40
2023-05-11T17:14:46.668Z,2.70
2023-05-11T17:19:46.598Z,2.50
2023-05-11T17:24:46.596Z,2.79
2023-05-11T17:29:46.462Z,2.09
2023-05-11T17:34:46.413Z,2.29
2023-05-11T17:39:47.881Z,3.50
2023-05-11T17:44:46.286Z,4.69
2023-05-11T17:49:46.212Z,2.50
2023-05-11T17:54:46.150Z,2.09
2023-05-11T17:59:46.080Z,1.70
2023-05-11T18:04:46.030Z,4.09
2023-05-11T18:09:45.955Z,2.20
2023-05-11T18:14:45.902Z,2.70
2023-05-11T18:19:45.821Z,3.29
2023-05-11T18:24:45.771Z,3.50
2023-05-11T18:29:45.688Z,2.40
2023-05-11T18:34:45.642Z,4.00
2023-05-11T18:39:45.560Z,3.00
2023-05-11T18:44:45.511Z,4.09
2023-05-11T18:49:46.542Z,2.59
2023-05-11T18:54:45.366Z,3.09
2023-05-11T18:59:45.295Z,2.29
2023-05-11T19:04:45.249Z,3.50
2023-05-11T19:09:45.191Z,8.10
2023-05-11T19:14:46.715Z,4.80
2023-05-11T19:19:45.044Z,4.30
2023-05-11T19:24:44.974Z,5.90
2023-05-11T19:29:44.897Z,4.00
2023-05-11T19:34:44.844Z,6.59
2023-05-11T19:39:44.782Z,4.19
2023-05-11T19:44:44.721Z,3.70
2023-05-11T19:49:44.666Z,3.40
2023-05-11T19:54:45.102Z,4.80
2023-05-11T19:59:44.497Z,4.19
2023-05-11T20:04:44.450Z,3.00
2023-05-11T20:09:44.362Z,5.69
2023-05-11T20:14:44.312Z,7.59
2023-05-11T20:19:44.234Z,20.00
2023-05-11T20:24:44.175Z,15.89
2023-05-11T20:29:44.105Z,5.69
2023-05-11T20:34:44.061Z,4.50
2023-05-11T20:39:43.981Z,3.59
2023-05-11T20:44:43.916Z,6.19
2023-05-11T20:49:43.841Z,5.09
2023-05-11T20:54:43.785Z,4.80
2023-05-11T21:04:43.654Z,5.59
2023-05-11T21:09:43.593Z,3.00
2023-05-11T21:14:43.537Z,6.30
2023-05-11T21:19:43.453Z,5.09
2023-05-11T21:24:43.399Z,5.30
2023-05-11T21:29:43.336Z,6.80
2023-05-11T21:34:43.274Z,5.90
2023-05-11T21:39:43.198Z,10.80
2023-05-11T21:44:43.131Z,6.80
2023-05-11T21:49:43.069Z,5.59
2023-05-11T21:54:43.015Z,4.80
2023-05-11T21:59:42.943Z,6.40
2023-05-11T22:04:42.877Z,8.69
2023-05-11T22:09:42.804Z,7.50
2023-05-11T22:14:42.756Z,5.69
2023-05-11T22:19:42.672Z,7.69
2023-05-11T22:24:42.611Z,7.90
2023-05-11T22:29:42.539Z,7.00
2023-05-11T22:34:42.480Z,5.69
2023-05-11T22:39:42.407Z,6.30
2023-05-11T22:44:42.347Z,9.10
2023-05-11T22:49:42.284Z,7.40
2023-05-11T22:54:42.214Z,5.50
2023-05-11T22:59:42.147Z,6.50
2023-05-11T23:04:42.090Z,5.09
2023-05-11T23:09:42.026Z,4.09
2023-05-11T23:14:41.995Z,6.80
2023-05-11T23:19:41.966Z,6.40
2023-05-11T23:24:41.818Z,6.19
2023-05-11T23:29:41.778Z,4.50
2023-05-11T23:34:41.680Z,6.59
2023-05-11T23:39:41.620Z,4.59
2023-05-11T23:44:41.553Z,7.09
2023-05-11T23:49:41.491Z,6.30
2023-05-11T23:54:41.409Z,5.19
2023-05-11T23:59:41.346Z,5.09
